sensor_id;sensor_type;location;lat;lon;timestamp;P1;durP1;ratioP1;P2;durP2;ratioP2
16731;SDS011;8484;50.904;9.192;2023-05-17T00:00:46;24.47;;;22.83;;
16731;SDS011;8484;50.904;9.192;2023-05-17T00:03:13;23.90;;;22.37;;
16731;SDS011;8484;50.904;9.192;2023-05-17T00:05:40;24.10;;;22.60;;
16731;SDS011;8484;50.904;9.192;2023-05-17T00:08:07;25.10;;;23.30;;
16731;SDS011;8484;50.904;9.192;2023-05-17T00:10:35;24.40;;;22.90;;
16731;SDS011;8484;50.904;9.192;2023-05-17T00:13:02;25.00;;;23.20;;
16731;SDS011;8484;50.904;9.192;2023-05-17T00:15:29;24.77;;;23.27;;
16731;SDS011;8484;50.904;9.192;2023-05-17T00:17:56;25.07;;;23.47;;
16731;SDS011;8484;50.904;9.192;2023-05-17T00:20:23;24.60;;;23.07;;
16731;SDS011;8484;50.904;9.192;2023-05-17T00:22:49;24.73;;;23.13;;
16731;SDS011;8484;50.904;9.192;2023-05-17T00:25:16;24.03;;;22.60;;
16731;SDS011;8484;50.904;9.192;2023-05-17T00:27:44;24.30;;;22.87;;
16731;SDS011;8484;50.904;9.192;2023-05-17T00:30:11;23.80;;;22.20;;
16731;SDS011;8484;50.904;9.192;2023-05-17T00:32:38;23.80;;;22.30;;
16731;SDS011;8484;50.904;9.192;2023-05-17T00:35:05;22.77;;;21.27;;
16731;SDS011;8484;50.904;9.192;2023-05-17T00:37:33;21.77;;;20.27;;
16731;SDS011;8484;50.904;9.192;2023-05-17T00:39:59;21.23;;;19.93;;
16731;SDS011;8484;50.904;9.192;2023-05-17T00:42:26;19.90;;;18.63;;
16731;SDS011;8484;50.904;9.192;2023-05-17T00:44:54;20.00;;;18.70;;
16731;SDS011;8484;50.904;9.192;2023-05-17T00:47:21;20.17;;;18.67;;
16731;SDS011;8484;50.904;9.192;2023-05-17T00:49:48;20.17;;;18.67;;
16731;SDS011;8484;50.904;9.192;2023-05-17T00:52:15;19.70;;;18.40;;
16731;SDS011;8484;50.904;9.192;2023-05-17T00:54:42;19.87;;;18.57;;
16731;SDS011;8484;50.904;9.192;2023-05-17T00:57:13;18.97;;;17.77;;
16731;SDS011;8484;50.904;9.192;2023-05-17T00:59:41;19.37;;;17.97;;
16731;SDS011;8484;50.904;9.192;2023-05-17T01:02:11;19.20;;;17.63;;
16731;SDS011;8484;50.904;9.192;2023-05-17T01:04:38;18.93;;;17.70;;
16731;SDS011;8484;50.904;9.192;2023-05-17T01:07:06;19.17;;;17.90;;
16731;SDS011;8484;50.904;9.192;2023-05-17T01:09:33;18.93;;;17.83;;
16731;SDS011;8484;50.904;9.192;2023-05-17T01:12:04;19.20;;;17.93;;
16731;SDS011;8484;50.904;9.192;2023-05-17T01:14:39;19.03;;;17.83;;
16731;SDS011;8484;50.904;9.192;2023-05-17T01:17:15;18.60;;;17.40;;
16731;SDS011;8484;50.904;9.192;2023-05-17T01:19:50;19.20;;;18.00;;
16731;SDS011;8484;50.904;9.192;2023-05-17T01:22:38;19.07;;;17.87;;
16731;SDS011;8484;50.904;9.192;2023-05-17T01:28:07;18.90;;;17.60;;
16731;SDS011;8484;50.904;9.192;2023-05-17T01:30:35;19.20;;;18.00;;
16731;SDS011;8484;50.904;9.192;2023-05-17T01:33:03;19.70;;;18.20;;
16731;SDS011;8484;50.904;9.192;2023-05-17T01:35:32;19.40;;;18.20;;
16731;SDS011;8484;50.904;9.192;2023-05-17T01:37:59;19.90;;;18.53;;
16731;SDS011;8484;50.904;9.192;2023-05-17T01:40:26;19.47;;;18.27;;
16731;SDS011;8484;50.904;9.192;2023-05-17T01:42:54;20.43;;;19.13;;
16731;SDS011;8484;50.904;9.192;2023-05-17T01:45:29;19.90;;;18.50;;
16731;SDS011;8484;50.904;9.192;2023-05-17T01:48:03;20.93;;;19.53;;
16731;SDS011;8484;50.904;9.192;2023-05-17T01:50:44;19.50;;;18.30;;
16731;SDS011;8484;50.904;9.192;2023-05-17T01:53:16;19.93;;;18.63;;
16731;SDS011;8484;50.904;9.192;2023-05-17T01:55:47;19.33;;;18.20;;
16731;SDS011;8484;50.904;9.192;2023-05-17T01:58:16;20.63;;;19.33;;
16731;SDS011;8484;50.904;9.192;2023-05-17T02:00:48;19.93;;;18.83;;
16731;SDS011;8484;50.904;9.192;2023-05-17T02:03:17;20.07;;;18.87;;
16731;SDS011;8484;50.904;9.192;2023-05-17T02:05:44;21.27;;;19.50;;
16731;SDS011;8484;50.904;9.192;2023-05-17T02:08:12;20.63;;;19.30;;
16731;SDS011;8484;50.904;9.192;2023-05-17T02:10:39;20.90;;;19.60;;
16731;SDS011;8484;50.904;9.192;2023-05-17T02:13:05;21.13;;;19.47;;
16731;SDS011;8484;50.904;9.192;2023-05-17T02:15:32;21.67;;;20.17;;
16731;SDS011;8484;50.904;9.192;2023-05-17T02:18:03;21.53;;;20.10;;
16731;SDS011;8484;50.904;9.192;2023-05-17T02:20:29;21.87;;;20.47;;
16731;SDS011;8484;50.904;9.192;2023-05-17T02:22:56;22.30;;;20.67;;
16731;SDS011;8484;50.904;9.192;2023-05-17T02:25:23;21.77;;;20.47;;
16731;SDS011;8484;50.904;9.192;2023-05-17T02:27:50;22.10;;;20.60;;
16731;SDS011;8484;50.904;9.192;2023-05-17T02:30:17;20.90;;;19.57;;
16731;SDS011;8484;50.904;9.192;2023-05-17T02:32:46;20.93;;;19.53;;
16731;SDS011;8484;50.904;9.192;2023-05-17T02:35:14;20.10;;;18.90;;
16731;SDS011;8484;50.904;9.192;2023-05-17T02:37:41;21.93;;;20.50;;
16731;SDS011;8484;50.904;9.192;2023-05-17T02:40:08;23.57;;;21.87;;
16731;SDS011;8484;50.904;9.192;2023-05-17T02:42:35;23.80;;;22.13;;
16731;SDS011;8484;50.904;9.192;2023-05-17T02:45:02;23.83;;;22.30;;
16731;SDS011;8484;50.904;9.192;2023-05-17T02:47:30;23.77;;;22.03;;
16731;SDS011;8484;50.904;9.192;2023-05-17T02:49:56;23.73;;;22.17;;
16731;SDS011;8484;50.904;9.192;2023-05-17T02:52:24;23.10;;;21.53;;
16731;SDS011;8484;50.904;9.192;2023-05-17T02:54:51;24.67;;;23.17;;
16731;SDS011;8484;50.904;9.192;2023-05-17T02:57:18;25.83;;;24.13;;
16731;SDS011;8484;50.904;9.192;2023-05-17T02:59:46;25.37;;;23.67;;
16731;SDS011;8484;50.904;9.192;2023-05-17T03:02:13;25.07;;;23.50;;
16731;SDS011;8484;50.904;9.192;2023-05-17T03:04:39;26.03;;;24.33;;
16731;SDS011;8484;50.904;9.192;2023-05-17T03:07:06;26.70;;;25.00;;
16731;SDS011;8484;50.904;9.192;2023-05-17T03:09:35;27.37;;;25.60;;
16731;SDS011;8484;50.904;9.192;2023-05-17T03:12:01;26.77;;;25.07;;
16731;SDS011;8484;50.904;9.192;2023-05-17T03:14:28;26.97;;;25.23;;
16731;SDS011;8484;50.904;9.192;2023-05-17T03:16:55;25.90;;;24.30;;
16731;SDS011;8484;50.904;9.192;2023-05-17T03:19:22;24.93;;;23.17;;
16731;SDS011;8484;50.904;9.192;2023-05-17T03:21:49;24.50;;;22.90;;
16731;SDS011;8484;50.904;9.192;2023-05-17T03:24:16;25.17;;;23.50;;
16731;SDS011;8484;50.904;9.192;2023-05-17T03:26:44;24.80;;;23.20;;
16731;SDS011;8484;50.904;9.192;2023-05-17T03:29:10;25.17;;;23.60;;
16731;SDS011;8484;50.904;9.192;2023-05-17T03:31:37;25.07;;;23.53;;
16731;SDS011;8484;50.904;9.192;2023-05-17T03:34:04;27.47;;;25.77;;
16731;SDS011;8484;50.904;9.192;2023-05-17T03:36:32;27.17;;;25.37;;
16731;SDS011;8484;50.904;9.192;2023-05-17T03:38:59;27.40;;;25.77;;
16731;SDS011;8484;50.904;9.192;2023-05-17T03:41:26;27.90;;;26.00;;
16731;SDS011;8484;50.904;9.192;2023-05-17T03:43:54;27.47;;;25.73;;
16731;SDS011;8484;50.904;9.192;2023-05-17T03:46:21;28.50;;;26.53;;
16731;SDS011;8484;50.904;9.192;2023-05-17T03:48:48;27.40;;;25.70;;
16731;SDS011;8484;50.904;9.192;2023-05-17T03:51:15;26.97;;;25.23;;
16731;SDS011;8484;50.904;9.192;2023-05-17T03:53:42;27.03;;;25.30;;
16731;SDS011;8484;50.904;9.192;2023-05-17T03:56:09;25.97;;;24.00;;
16731;SDS011;8484;50.904;9.192;2023-05-17T03:58:36;24.60;;;23.00;;
16731;SDS011;8484;50.904;9.192;2023-05-17T04:01:04;24.17;;;22.67;;
16731;SDS011;8484;50.904;9.192;2023-05-17T04:03:31;24.13;;;22.53;;
16731;SDS011;8484;50.904;9.192;2023-05-17T04:06:02;23.90;;;22.40;;
16731;SDS011;8484;50.904;9.192;2023-05-17T04:08:31;25.17;;;23.30;;
16731;SDS011;8484;50.904;9.192;2023-05-17T04:10:58;24.87;;;23.27;;
16731;SDS011;8484;50.904;9.192;2023-05-17T04:13:33;23.90;;;22.40;;
16731;SDS011;8484;50.904;9.192;2023-05-17T04:16:00;24.33;;;22.73;;
16731;SDS011;8484;50.904;9.192;2023-05-17T04:18:29;24.73;;;23.13;;
16731;SDS011;8484;50.904;9.192;2023-05-17T04:20:55;27.20;;;25.27;;
16731;SDS011;8484;50.904;9.192;2023-05-17T04:23:22;28.77;;;26.67;;
16731;SDS011;8484;50.904;9.192;2023-05-17T04:25:49;28.70;;;26.90;;
16731;SDS011;8484;50.904;9.192;2023-05-17T04:28:17;27.20;;;25.60;;
16731;SDS011;8484;50.904;9.192;2023-05-17T04:30:44;25.97;;;24.37;;
16731;SDS011;8484;50.904;9.192;2023-05-17T04:33:11;24.17;;;22.57;;
16731;SDS011;8484;50.904;9.192;2023-05-17T04:35:41;23.30;;;21.80;;
16731;SDS011;8484;50.904;9.192;2023-05-17T04:38:08;24.37;;;22.57;;
16731;SDS011;8484;50.904;9.192;2023-05-17T04:40:36;23.80;;;22.27;;
16731;SDS011;8484;50.904;9.192;2023-05-17T04:43:03;23.70;;;22.20;;
16731;SDS011;8484;50.904;9.192;2023-05-17T04:45:31;23.43;;;22.03;;
16731;SDS011;8484;50.904;9.192;2023-05-17T04:47:58;24.20;;;22.50;;
16731;SDS011;8484;50.904;9.192;2023-05-17T04:50:25;25.50;;;23.50;;
16731;SDS011;8484;50.904;9.192;2023-05-17T04:52:54;26.30;;;24.57;;
16731;SDS011;8484;50.904;9.192;2023-05-17T04:55:20;28.17;;;26.27;;
16731;SDS011;8484;50.904;9.192;2023-05-17T04:57:48;28.83;;;26.93;;
16731;SDS011;8484;50.904;9.192;2023-05-17T05:00:15;29.53;;;27.73;;
16731;SDS011;8484;50.904;9.192;2023-05-17T05:02:42;30.50;;;28.60;;
16731;SDS011;8484;50.904;9.192;2023-05-17T05:05:10;31.77;;;29.77;;
16731;SDS011;8484;50.904;9.192;2023-05-17T05:07:37;31.37;;;29.37;;
16731;SDS011;8484;50.904;9.192;2023-05-17T05:10:06;31.23;;;29.13;;
16731;SDS011;8484;50.904;9.192;2023-05-17T05:12:33;32.37;;;30.17;;
16731;SDS011;8484;50.904;9.192;2023-05-17T05:15:00;30.00;;;28.00;;
16731;SDS011;8484;50.904;9.192;2023-05-17T05:17:28;28.73;;;26.93;;
16731;SDS011;8484;50.904;9.192;2023-05-17T05:19:56;26.43;;;24.60;;
16731;SDS011;8484;50.904;9.192;2023-05-17T05:22:23;25.70;;;23.80;;
16731;SDS011;8484;50.904;9.192;2023-05-17T05:24:50;24.30;;;22.80;;
16731;SDS011;8484;50.904;9.192;2023-05-17T05:27:18;24.93;;;23.43;;
16731;SDS011;8484;50.904;9.192;2023-05-17T05:29:45;25.43;;;23.93;;
16731;SDS011;8484;50.904;9.192;2023-05-17T05:32:12;28.33;;;26.23;;
16731;SDS011;8484;50.904;9.192;2023-05-17T05:34:40;28.10;;;26.30;;
16731;SDS011;8484;50.904;9.192;2023-05-17T05:37:06;28.90;;;27.10;;
16731;SDS011;8484;50.904;9.192;2023-05-17T05:39:34;30.50;;;28.43;;
16731;SDS011;8484;50.904;9.192;2023-05-17T05:42:01;31.43;;;29.53;;
16731;SDS011;8484;50.904;9.192;2023-05-17T05:44:30;31.43;;;29.37;;
16731;SDS011;8484;50.904;9.192;2023-05-17T05:46:57;30.87;;;28.97;;
16731;SDS011;8484;50.904;9.192;2023-05-17T05:49:27;29.43;;;27.50;;
16731;SDS011;8484;50.904;9.192;2023-05-17T05:51:55;28.13;;;26.43;;
16731;SDS011;8484;50.904;9.192;2023-05-17T05:54:22;26.93;;;25.33;;
16731;SDS011;8484;50.904;9.192;2023-05-17T05:56:51;26.60;;;25.00;;
16731;SDS011;8484;50.904;9.192;2023-05-17T05:59:20;26.67;;;24.97;;
16731;SDS011;8484;50.904;9.192;2023-05-17T06:01:48;26.87;;;25.07;;
16731;SDS011;8484;50.904;9.192;2023-05-17T06:04:15;26.13;;;24.33;;
16731;SDS011;8484;50.904;9.192;2023-05-17T06:06:42;26.50;;;24.80;;
16731;SDS011;8484;50.904;9.192;2023-05-17T06:09:09;25.57;;;23.97;;
16731;SDS011;8484;50.904;9.192;2023-05-17T06:11:37;26.73;;;25.03;;
16731;SDS011;8484;50.904;9.192;2023-05-17T06:14:03;26.20;;;24.50;;
16731;SDS011;8484;50.904;9.192;2023-05-17T06:16:30;27.33;;;25.63;;
16731;SDS011;8484;50.904;9.192;2023-05-17T06:18:58;27.83;;;26.13;;
16731;SDS011;8484;50.904;9.192;2023-05-17T06:21:25;27.70;;;25.90;;
16731;SDS011;8484;50.904;9.192;2023-05-17T06:23:52;26.13;;;24.43;;
16731;SDS011;8484;50.904;9.192;2023-05-17T06:26:19;24.37;;;22.67;;
16731;SDS011;8484;50.904;9.192;2023-05-17T06:28:46;23.67;;;22.00;;
16731;SDS011;8484;50.904;9.192;2023-05-17T06:31:12;22.93;;;21.33;;
16731;SDS011;8484;50.904;9.192;2023-05-17T06:33:39;21.03;;;19.73;;
16731;SDS011;8484;50.904;9.192;2023-05-17T06:36:08;22.17;;;20.77;;
16731;SDS011;8484;50.904;9.192;2023-05-17T06:38:34;23.60;;;21.90;;
16731;SDS011;8484;50.904;9.192;2023-05-17T06:41:01;23.93;;;22.23;;
16731;SDS011;8484;50.904;9.192;2023-05-17T06:43:28;21.90;;;20.33;;
16731;SDS011;8484;50.904;9.192;2023-05-17T06:45:55;22.47;;;20.93;;
16731;SDS011;8484;50.904;9.192;2023-05-17T06:48:22;21.27;;;19.97;;
16731;SDS011;8484;50.904;9.192;2023-05-17T06:50:49;23.23;;;21.63;;
16731;SDS011;8484;50.904;9.192;2023-05-17T06:53:17;25.70;;;24.07;;
16731;SDS011;8484;50.904;9.192;2023-05-17T06:55:44;27.87;;;25.67;;
16731;SDS011;8484;50.904;9.192;2023-05-17T06:58:11;26.90;;;25.30;;
16731;SDS011;8484;50.904;9.192;2023-05-17T07:00:38;26.10;;;24.23;;
16731;SDS011;8484;50.904;9.192;2023-05-17T07:03:05;25.63;;;23.93;;
16731;SDS011;8484;50.904;9.192;2023-05-17T07:05:31;25.87;;;24.10;;
16731;SDS011;8484;50.904;9.192;2023-05-17T07:07:58;27.07;;;25.27;;
16731;SDS011;8484;50.904;9.192;2023-05-17T07:10:27;29.10;;;27.07;;
16731;SDS011;8484;50.904;9.192;2023-05-17T07:12:53;28.20;;;26.30;;
16731;SDS011;8484;50.904;9.192;2023-05-17T07:15:20;28.97;;;26.77;;
16731;SDS011;8484;50.904;9.192;2023-05-17T07:17:47;26.30;;;24.27;;
16731;SDS011;8484;50.904;9.192;2023-05-17T07:20:14;26.63;;;24.80;;
16731;SDS011;8484;50.904;9.192;2023-05-17T07:22:41;25.83;;;24.13;;
16731;SDS011;8484;50.904;9.192;2023-05-17T07:25:08;25.20;;;23.43;;
16731;SDS011;8484;50.904;9.192;2023-05-17T07:27:37;25.03;;;23.33;;
16731;SDS011;8484;50.904;9.192;2023-05-17T07:30:04;23.87;;;22.27;;
16731;SDS011;8484;50.904;9.192;2023-05-17T07:32:31;22.77;;;21.23;;
16731;SDS011;8484;50.904;9.192;2023-05-17T07:34:58;20.10;;;18.60;;
16731;SDS011;8484;50.904;9.192;2023-05-17T07:37:26;19.00;;;17.70;;
16731;SDS011;8484;50.904;9.192;2023-05-17T07:39:53;18.57;;;17.30;;
16731;SDS011;8484;50.904;9.192;2023-05-17T07:42:20;19.37;;;18.07;;
16731;SDS011;8484;50.904;9.192;2023-05-17T07:44:49;19.20;;;17.90;;
16731;SDS011;8484;50.904;9.192;2023-05-17T07:47:16;18.27;;;17.00;;
16731;SDS011;8484;50.904;9.192;2023-05-17T07:49:43;16.57;;;15.23;;
16731;SDS011;8484;50.904;9.192;2023-05-17T07:52:10;15.70;;;14.60;;
16731;SDS011;8484;50.904;9.192;2023-05-17T07:54:37;15.43;;;14.23;;
16731;SDS011;8484;50.904;9.192;2023-05-17T07:57:04;15.17;;;14.07;;
16731;SDS011;8484;50.904;9.192;2023-05-17T07:59:31;13.40;;;12.50;;
16731;SDS011;8484;50.904;9.192;2023-05-17T08:01:59;12.50;;;11.67;;
16731;SDS011;8484;50.904;9.192;2023-05-17T08:04:26;13.20;;;12.20;;
16731;SDS011;8484;50.904;9.192;2023-05-17T08:06:53;13.50;;;12.33;;
16731;SDS011;8484;50.904;9.192;2023-05-17T08:09:20;14.30;;;13.30;;
16731;SDS011;8484;50.904;9.192;2023-05-17T08:11:47;15.17;;;13.77;;
16731;SDS011;8484;50.904;9.192;2023-05-17T08:14:16;14.03;;;13.00;;
16731;SDS011;8484;50.904;9.192;2023-05-17T08:16:44;13.50;;;12.57;;
16731;SDS011;8484;50.904;9.192;2023-05-17T08:19:13;13.80;;;12.90;;
16731;SDS011;8484;50.904;9.192;2023-05-17T08:21:40;14.07;;;12.87;;
16731;SDS011;8484;50.904;9.192;2023-05-17T08:24:07;13.17;;;12.27;;
16731;SDS011;8484;50.904;9.192;2023-05-17T08:26:35;14.87;;;13.80;;
16731;SDS011;8484;50.904;9.192;2023-05-17T08:29:03;14.20;;;13.23;;
16731;SDS011;8484;50.904;9.192;2023-05-17T08:31:30;12.87;;;11.97;;
16731;SDS011;8484;50.904;9.192;2023-05-17T08:33:56;13.10;;;12.20;;
16731;SDS011;8484;50.904;9.192;2023-05-17T08:36:25;14.23;;;13.13;;
16731;SDS011;8484;50.904;9.192;2023-05-17T08:38:55;13.90;;;12.70;;
16731;SDS011;8484;50.904;9.192;2023-05-17T08:41:26;12.53;;;11.53;;
16731;SDS011;8484;50.904;9.192;2023-05-17T08:43:53;13.17;;;12.07;;
16731;SDS011;8484;50.904;9.192;2023-05-17T08:46:23;13.80;;;12.73;;
16731;SDS011;8484;50.904;9.192;2023-05-17T08:48:58;13.73;;;12.70;;
16731;SDS011;8484;50.904;9.192;2023-05-17T08:51:27;13.17;;;12.17;;
16731;SDS011;8484;50.904;9.192;2023-05-17T08:53:54;13.87;;;12.57;;
16731;SDS011;8484;50.904;9.192;2023-05-17T08:56:22;12.50;;;11.60;;
16731;SDS011;8484;50.904;9.192;2023-05-17T08:58:51;13.23;;;12.33;;
16731;SDS011;8484;50.904;9.192;2023-05-17T09:01:37;12.67;;;11.67;;
16731;SDS011;8484;50.904;9.192;2023-05-17T09:04:08;13.73;;;12.63;;
16731;SDS011;8484;50.904;9.192;2023-05-17T09:06:37;14.03;;;13.03;;
16731;SDS011;8484;50.904;9.192;2023-05-17T09:09:04;12.70;;;11.80;;
16731;SDS011;8484;50.904;9.192;2023-05-17T09:11:32;12.80;;;11.80;;
16731;SDS011;8484;50.904;9.192;2023-05-17T09:14:00;12.50;;;11.60;;
16731;SDS011;8484;50.904;9.192;2023-05-17T09:16:28;13.83;;;12.63;;
16731;SDS011;8484;50.904;9.192;2023-05-17T09:18:55;13.60;;;12.60;;
16731;SDS011;8484;50.904;9.192;2023-05-17T09:21:23;12.73;;;11.73;;
16731;SDS011;8484;50.904;9.192;2023-05-17T09:23:53;13.60;;;12.43;;
16731;SDS011;8484;50.904;9.192;2023-05-17T09:26:23;13.07;;;12.00;;
16731;SDS011;8484;50.904;9.192;2023-05-17T09:28:51;12.83;;;11.70;;
16731;SDS011;8484;50.904;9.192;2023-05-17T09:31:18;13.13;;;11.77;;
16731;SDS011;8484;50.904;9.192;2023-05-17T09:33:45;11.60;;;10.63;;
16731;SDS011;8484;50.904;9.192;2023-05-17T09:36:14;11.77;;;10.93;;
16731;SDS011;8484;50.904;9.192;2023-05-17T09:38:42;11.50;;;10.70;;
16731;SDS011;8484;50.904;9.192;2023-05-17T09:41:11;13.20;;;12.23;;
16731;SDS011;8484;50.904;9.192;2023-05-17T09:43:38;13.47;;;12.47;;
16731;SDS011;8484;50.904;9.192;2023-05-17T09:46:05;14.63;;;13.30;;
16731;SDS011;8484;50.904;9.192;2023-05-17T09:48:32;13.80;;;12.70;;
16731;SDS011;8484;50.904;9.192;2023-05-17T09:51:03;13.87;;;12.80;;
16731;SDS011;8484;50.904;9.192;2023-05-17T09:53:32;12.77;;;11.87;;
16731;SDS011;8484;50.904;9.192;2023-05-17T09:56:04;12.60;;;11.70;;
16731;SDS011;8484;50.904;9.192;2023-05-17T09:58:34;12.97;;;11.93;;
16731;SDS011;8484;50.904;9.192;2023-05-17T10:01:03;13.73;;;12.63;;
16731;SDS011;8484;50.904;9.192;2023-05-17T10:03:31;13.07;;;12.07;;
16731;SDS011;8484;50.904;9.192;2023-05-17T10:06:00;12.80;;;11.93;;
16731;SDS011;8484;50.904;9.192;2023-05-17T10:08:29;12.63;;;11.73;;
16731;SDS011;8484;50.904;9.192;2023-05-17T10:10:58;12.70;;;11.80;;
16731;SDS011;8484;50.904;9.192;2023-05-17T10:13:31;12.97;;;12.03;;
16731;SDS011;8484;50.904;9.192;2023-05-17T10:16:02;12.90;;;12.10;;
16731;SDS011;8484;50.904;9.192;2023-05-17T10:18:29;13.63;;;12.50;;
16731;SDS011;8484;50.904;9.192;2023-05-17T10:20:57;13.50;;;12.40;;
16731;SDS011;8484;50.904;9.192;2023-05-17T10:23:25;12.63;;;11.63;;
16731;SDS011;8484;50.904;9.192;2023-05-17T10:25:53;12.17;;;11.27;;
16731;SDS011;8484;50.904;9.192;2023-05-17T10:28:20;12.73;;;11.63;;
16731;SDS011;8484;50.904;9.192;2023-05-17T10:30:50;13.57;;;12.47;;
16731;SDS011;8484;50.904;9.192;2023-05-17T10:33:34;14.17;;;12.93;;
16731;SDS011;8484;50.904;9.192;2023-05-17T10:36:04;13.87;;;12.87;;
16731;SDS011;8484;50.904;9.192;2023-05-17T10:38:32;13.37;;;12.27;;
16731;SDS011;8484;50.904;9.192;2023-05-17T10:40:59;13.77;;;12.67;;
16731;SDS011;8484;50.904;9.192;2023-05-17T10:43:27;14.87;;;13.77;;
16731;SDS011;8484;50.904;9.192;2023-05-17T10:45:57;13.30;;;12.30;;
16731;SDS011;8484;50.904;9.192;2023-05-17T10:48:26;13.13;;;12.07;;
16731;SDS011;8484;50.904;9.192;2023-05-17T10:50:55;15.80;;;14.60;;
16731;SDS011;8484;50.904;9.192;2023-05-17T10:53:21;14.40;;;13.23;;
16731;SDS011;8484;50.904;9.192;2023-05-17T10:55:48;15.40;;;14.30;;
16731;SDS011;8484;50.904;9.192;2023-05-17T10:58:17;15.20;;;14.07;;
16731;SDS011;8484;50.904;9.192;2023-05-17T11:00:46;14.97;;;14.03;;
16731;SDS011;8484;50.904;9.192;2023-05-17T11:03:19;14.33;;;13.20;;
16731;SDS011;8484;50.904;9.192;2023-05-17T11:08:41;14.37;;;13.37;;
16731;SDS011;8484;50.904;9.192;2023-05-17T11:11:12;12.87;;;11.87;;
16731;SDS011;8484;50.904;9.192;2023-05-17T11:13:43;13.63;;;12.50;;
16731;SDS011;8484;50.904;9.192;2023-05-17T11:16:14;12.80;;;11.70;;
16731;SDS011;8484;50.904;9.192;2023-05-17T11:18:47;13.47;;;12.40;;
16731;SDS011;8484;50.904;9.192;2023-05-17T11:21:15;12.40;;;11.50;;
16731;SDS011;8484;50.904;9.192;2023-05-17T11:23:43;13.00;;;12.00;;
16731;SDS011;8484;50.904;9.192;2023-05-17T11:26:11;15.53;;;14.27;;
16731;SDS011;8484;50.904;9.192;2023-05-17T11:28:42;14.53;;;13.53;;
16731;SDS011;8484;50.904;9.192;2023-05-17T11:31:09;15.60;;;14.37;;
16731;SDS011;8484;50.904;9.192;2023-05-17T11:33:37;14.03;;;12.97;;
16731;SDS011;8484;50.904;9.192;2023-05-17T11:36:12;13.30;;;12.30;;
16731;SDS011;8484;50.904;9.192;2023-05-17T11:38:41;13.40;;;12.50;;
16731;SDS011;8484;50.904;9.192;2023-05-17T11:41:17;13.93;;;13.03;;
16731;SDS011;8484;50.904;9.192;2023-05-17T11:43:47;14.30;;;13.40;;
16731;SDS011;8484;50.904;9.192;2023-05-17T11:46:18;13.73;;;12.57;;
16731;SDS011;8484;50.904;9.192;2023-05-17T11:48:46;14.10;;;13.00;;
16731;SDS011;8484;50.904;9.192;2023-05-17T11:51:17;13.07;;;12.07;;
16731;SDS011;8484;50.904;9.192;2023-05-17T11:53:45;13.33;;;12.47;;
16731;SDS011;8484;50.904;9.192;2023-05-17T11:56:13;14.17;;;13.07;;
16731;SDS011;8484;50.904;9.192;2023-05-17T11:58:41;13.50;;;12.60;;
16731;SDS011;8484;50.904;9.192;2023-05-17T12:01:09;14.50;;;13.50;;
16731;SDS011;8484;50.904;9.192;2023-05-17T12:03:36;14.70;;;13.63;;
16731;SDS011;8484;50.904;9.192;2023-05-17T12:06:03;14.20;;;13.00;;
16731;SDS011;8484;50.904;9.192;2023-05-17T12:08:35;13.30;;;12.30;;
16731;SDS011;8484;50.904;9.192;2023-05-17T12:11:03;15.63;;;14.50;;
16731;SDS011;8484;50.904;9.192;2023-05-17T12:13:31;14.10;;;13.10;;
16731;SDS011;8484;50.904;9.192;2023-05-17T12:16:00;13.10;;;12.20;;
16731;SDS011;8484;50.904;9.192;2023-05-17T12:18:36;13.70;;;12.63;;
16731;SDS011;8484;50.904;9.192;2023-05-17T12:21:04;12.73;;;11.83;;
16731;SDS011;8484;50.904;9.192;2023-05-17T12:23:32;11.90;;;11.10;;
16731;SDS011;8484;50.904;9.192;2023-05-17T12:26:06;12.60;;;11.70;;
16731;SDS011;8484;50.904;9.192;2023-05-17T12:28:35;12.43;;;11.53;;
16731;SDS011;8484;50.904;9.192;2023-05-17T12:31:03;12.57;;;11.70;;
16731;SDS011;8484;50.904;9.192;2023-05-17T12:33:34;13.23;;;12.03;;
16731;SDS011;8484;50.904;9.192;2023-05-17T12:36:03;12.00;;;11.17;;
16731;SDS011;8484;50.904;9.192;2023-05-17T12:38:32;12.47;;;11.57;;
16731;SDS011;8484;50.904;9.192;2023-05-17T12:41:01;13.97;;;12.97;;
16731;SDS011;8484;50.904;9.192;2023-05-17T12:43:31;13.00;;;12.00;;
16731;SDS011;8484;50.904;9.192;2023-05-17T12:46:03;12.50;;;11.60;;
16731;SDS011;8484;50.904;9.192;2023-05-17T12:48:32;12.73;;;11.70;;
16731;SDS011;8484;50.904;9.192;2023-05-17T12:51:06;11.67;;;10.97;;
16731;SDS011;8484;50.904;9.192;2023-05-17T12:53:33;14.43;;;13.20;;
16731;SDS011;8484;50.904;9.192;2023-05-17T12:56:01;14.03;;;13.03;;
16731;SDS011;8484;50.904;9.192;2023-05-17T12:59:04;15.47;;;14.07;;
16731;SDS011;8484;50.904;9.192;2023-05-17T13:01:33;14.03;;;12.80;;
16731;SDS011;8484;50.904;9.192;2023-05-17T13:04:00;12.07;;;11.07;;
16731;SDS011;8484;50.904;9.192;2023-05-17T13:06:27;12.03;;;11.03;;
16731;SDS011;8484;50.904;9.192;2023-05-17T13:08:57;12.60;;;11.50;;
16731;SDS011;8484;50.904;9.192;2023-05-17T13:11:24;12.70;;;11.80;;
16731;SDS011;8484;50.904;9.192;2023-05-17T13:13:54;12.97;;;11.97;;
16731;SDS011;8484;50.904;9.192;2023-05-17T13:16:28;12.90;;;11.93;;
16731;SDS011;8484;50.904;9.192;2023-05-17T13:19:01;12.10;;;11.30;;
16731;SDS011;8484;50.904;9.192;2023-05-17T13:21:36;11.97;;;11.17;;
16731;SDS011;8484;50.904;9.192;2023-05-17T13:24:04;11.93;;;10.80;;
16731;SDS011;8484;50.904;9.192;2023-05-17T13:26:31;12.00;;;11.13;;
16731;SDS011;8484;50.904;9.192;2023-05-17T13:28:58;11.90;;;10.80;;
16731;SDS011;8484;50.904;9.192;2023-05-17T13:31:25;12.23;;;11.40;;
16731;SDS011;8484;50.904;9.192;2023-05-17T13:33:54;12.20;;;11.10;;
16731;SDS011;8484;50.904;9.192;2023-05-17T13:36:21;11.70;;;10.80;;
16731;SDS011;8484;50.904;9.192;2023-05-17T13:38:48;11.80;;;10.90;;
16731;SDS011;8484;50.904;9.192;2023-05-17T13:41:15;11.63;;;10.80;;
16731;SDS011;8484;50.904;9.192;2023-05-17T13:43:41;12.50;;;11.40;;
16731;SDS011;8484;50.904;9.192;2023-05-17T13:46:08;11.83;;;10.83;;
16731;SDS011;8484;50.904;9.192;2023-05-17T13:48:35;12.03;;;11.03;;
16731;SDS011;8484;50.904;9.192;2023-05-17T13:51:04;11.03;;;10.23;;
16731;SDS011;8484;50.904;9.192;2023-05-17T13:53:31;12.57;;;11.57;;
16731;SDS011;8484;50.904;9.192;2023-05-17T13:55:58;12.20;;;11.30;;
16731;SDS011;8484;50.904;9.192;2023-05-17T13:58:25;12.33;;;11.27;;
16731;SDS011;8484;50.904;9.192;2023-05-17T14:00:52;11.67;;;10.77;;
16731;SDS011;8484;50.904;9.192;2023-05-17T14:03:19;11.53;;;10.53;;
16731;SDS011;8484;50.904;9.192;2023-05-17T14:05:46;11.20;;;10.40;;
16731;SDS011;8484;50.904;9.192;2023-05-17T14:08:17;11.23;;;10.33;;
16731;SDS011;8484;50.904;9.192;2023-05-17T14:10:44;12.30;;;11.07;;
16731;SDS011;8484;50.904;9.192;2023-05-17T14:13:11;11.87;;;10.87;;
16731;SDS011;8484;50.904;9.192;2023-05-17T14:15:38;12.33;;;11.43;;
16731;SDS011;8484;50.904;9.192;2023-05-17T14:18:05;10.50;;;9.60;;
16731;SDS011;8484;50.904;9.192;2023-05-17T14:20:33;10.93;;;10.13;;
16731;SDS011;8484;50.904;9.192;2023-05-17T14:23:00;10.50;;;9.70;;
16731;SDS011;8484;50.904;9.192;2023-05-17T14:25:28;11.83;;;10.90;;
16731;SDS011;8484;50.904;9.192;2023-05-17T14:27:55;11.00;;;9.97;;
16731;SDS011;8484;50.904;9.192;2023-05-17T14:30:23;10.27;;;9.50;;
16731;SDS011;8484;50.904;9.192;2023-05-17T14:32:50;11.13;;;10.13;;
16731;SDS011;8484;50.904;9.192;2023-05-17T14:35:17;10.67;;;9.97;;
16731;SDS011;8484;50.904;9.192;2023-05-17T14:37:45;11.40;;;10.57;;
16731;SDS011;8484;50.904;9.192;2023-05-17T14:40:12;11.37;;;10.47;;
16731;SDS011;8484;50.904;9.192;2023-05-17T14:42:41;10.70;;;9.90;;
16731;SDS011;8484;50.904;9.192;2023-05-17T14:45:08;10.70;;;9.90;;
16731;SDS011;8484;50.904;9.192;2023-05-17T14:47:35;11.10;;;10.30;;